CheckWX is a tool to help pilots better visualize weather data.  It is not intended as a substitute for an official pre-flight weather briefing.

06:44:43 UTC

KCON TAF
Concord Municipal Airport
Concord, New Hampshire, USA
KCON 160520Z 1606/1706 23010KT P6SM BKN090 FM161100 24005KT 5SM -RA BKN030 OVC050 FM162100 VRB03KT P6SM BKN050 FM170200 00000KT 6SM BR OVC015

Jun-16@
06:00 UTC

Jun-16 @ 06:00 UTC

Jun-16@
11:00 UTC

Jun-16 @ 11:00 UTC

KCON 160520Z 1606/1706 23010KT P6SM BKN090
Wind
  • 230° at 10 KTS
Cloud Levels
  • Broken at 9,000' AGL

Jun-16@
11:00 UTC

Jun-16 @ 11:00 UTC

Jun-16@
21:00 UTC

Jun-16 @ 21:00 UTC

FM161100 24005KT 5SM -RA BKN030 OVC050

From

From Standard forecast or significant change

Wind
  • 240° at 5 KTS
Conditions
Light Rain
Cloud Levels
  • Broken at 3,000' AGL
  • Overcast at 5,000' AGL

Jun-16@
21:00 UTC

Jun-16 @ 21:00 UTC

Jun-17@
02:00 UTC

Jun-17 @ 02:00 UTC

FM162100 VRB03KT P6SM BKN050

From

From Standard forecast or significant change

Wind
  • Variable at 3 KTS
Cloud Levels
  • Broken at 5,000' AGL

Jun-17@
02:00 UTC

Jun-17 @ 02:00 UTC

Jun-17@
06:00 UTC

Jun-17 @ 06:00 UTC

FM170200 00000KT 6SM BR OVC015

From

From Standard forecast or significant change

Conditions
Mist
Cloud Levels
  • Overcast at 1,500' AGL